sensor_id;sensor_type;location;lat;lon;timestamp;temperature;humidity
80132;SHT30;69442;51.442;10.564;2023-04-25T00:02:08;8.82;61.45
80132;SHT30;69442;51.442;10.564;2023-04-25T00:04:34;8.77;61.49
80132;SHT30;69442;51.442;10.564;2023-04-25T00:07:00;8.72;61.19
80132;SHT30;69442;51.442;10.564;2023-04-25T00:09:27;8.73;61.29
80132;SHT30;69442;51.442;10.564;2023-04-25T00:11:52;8.76;61.29
80132;SHT30;69442;51.442;10.564;2023-04-25T00:14:18;8.75;61.21
80132;SHT30;69442;51.442;10.564;2023-04-25T00:16:43;8.75;61.10
80132;SHT30;69442;51.442;10.564;2023-04-25T00:19:09;8.71;60.89
80132;SHT30;69442;51.442;10.564;2023-04-25T00:21:35;8.71;61.11
80132;SHT30;69442;51.442;10.564;2023-04-25T00:24:00;8.64;60.96
80132;SHT30;69442;51.442;10.564;2023-04-25T00:26:26;8.66;61.34
80132;SHT30;69442;51.442;10.564;2023-04-25T00:28:52;8.64;61.39
80132;SHT30;69442;51.442;10.564;2023-04-25T00:31:17;8.61;61.09
80132;SHT30;69442;51.442;10.564;2023-04-25T00:33:42;8.59;61.30
80132;SHT30;69442;51.442;10.564;2023-04-25T00:36:08;8.54;61.05
80132;SHT30;69442;51.442;10.564;2023-04-25T00:38:34;8.54;60.90
80132;SHT30;69442;51.442;10.564;2023-04-25T00:40:59;8.51;60.74
80132;SHT30;69442;51.442;10.564;2023-04-25T00:43:26;8.49;61.08
80132;SHT30;69442;51.442;10.564;2023-04-25T00:45:52;8.49;61.46
80132;SHT30;69442;51.442;10.564;2023-04-25T00:48:18;8.47;61.38
80132;SHT30;69442;51.442;10.564;2023-04-25T00:50:53;8.41;61.38
80132;SHT30;69442;51.442;10.564;2023-04-25T00:53:22;8.38;61.13
80132;SHT30;69442;51.442;10.564;2023-04-25T00:55:48;8.36;61.35
80132;SHT30;69442;51.442;10.564;2023-04-25T00:58:16;8.37;61.39
80132;SHT30;69442;51.442;10.564;2023-04-25T01:00:42;8.33;61.00
80132;SHT30;69442;51.442;10.564;2023-04-25T01:03:07;8.30;61.04
80132;SHT30;69442;51.442;10.564;2023-04-25T01:05:33;8.30;61.06
80132;SHT30;69442;51.442;10.564;2023-04-25T01:07:58;8.26;60.98
80132;SHT30;69442;51.442;10.564;2023-04-25T01:10:24;8.24;60.89
80132;SHT30;69442;51.442;10.564;2023-04-25T01:12:50;8.21;61.02
80132;SHT30;69442;51.442;10.564;2023-04-25T01:15:15;8.20;61.16
80132;SHT30;69442;51.442;10.564;2023-04-25T01:17:41;8.17;60.82
80132;SHT30;69442;51.442;10.564;2023-04-25T01:20:08;8.17;60.88
80132;SHT30;69442;51.442;10.564;2023-04-25T01:22:34;8.16;61.36
80132;SHT30;69442;51.442;10.564;2023-04-25T01:25:00;8.14;61.27
80132;SHT30;69442;51.442;10.564;2023-04-25T01:27:25;8.10;61.46
80132;SHT30;69442;51.442;10.564;2023-04-25T01:29:51;8.07;61.43
80132;SHT30;69442;51.442;10.564;2023-04-25T01:32:17;8.04;61.35
80132;SHT30;69442;51.442;10.564;2023-04-25T01:34:43;8.06;61.33
80132;SHT30;69442;51.442;10.564;2023-04-25T01:37:08;8.03;61.02
80132;SHT30;69442;51.442;10.564;2023-04-25T01:39:34;8.03;61.20
80132;SHT30;69442;51.442;10.564;2023-04-25T01:42:00;7.99;61.27
80132;SHT30;69442;51.442;10.564;2023-04-25T01:44:25;7.96;61.14
80132;SHT30;69442;51.442;10.564;2023-04-25T01:46:51;7.97;61.11
80132;SHT30;69442;51.442;10.564;2023-04-25T01:49:16;7.96;61.44
80132;SHT30;69442;51.442;10.564;2023-04-25T01:51:42;7.89;61.41
80132;SHT30;69442;51.442;10.564;2023-04-25T01:54:08;7.86;61.62
80132;SHT30;69442;51.442;10.564;2023-04-25T01:56:37;7.82;61.39
80132;SHT30;69442;51.442;10.564;2023-04-25T01:59:03;7.82;61.50
80132;SHT30;69442;51.442;10.564;2023-04-25T02:01:29;7.79;61.60
80132;SHT30;69442;51.442;10.564;2023-04-25T02:03:55;7.76;61.65
80132;SHT30;69442;51.442;10.564;2023-04-25T02:06:20;7.76;61.96
80132;SHT30;69442;51.442;10.564;2023-04-25T02:08:46;7.74;62.03
80132;SHT30;69442;51.442;10.564;2023-04-25T02:11:11;7.71;61.97
80132;SHT30;69442;51.442;10.564;2023-04-25T02:13:36;7.69;61.87
80132;SHT30;69442;51.442;10.564;2023-04-25T02:16:02;7.67;61.97
80132;SHT30;69442;51.442;10.564;2023-04-25T02:18:27;7.64;61.93
80132;SHT30;69442;51.442;10.564;2023-04-25T02:20:52;7.59;62.12
80132;SHT30;69442;51.442;10.564;2023-04-25T02:23:18;7.57;62.12
80132;SHT30;69442;51.442;10.564;2023-04-25T02:25:46;7.57;62.29
80132;SHT30;69442;51.442;10.564;2023-04-25T02:28:11;7.52;61.94
80132;SHT30;69442;51.442;10.564;2023-04-25T02:30:37;7.50;61.88
80132;SHT30;69442;51.442;10.564;2023-04-25T02:33:02;7.50;62.20
80132;SHT30;69442;51.442;10.564;2023-04-25T02:35:28;7.47;62.18
80132;SHT30;69442;51.442;10.564;2023-04-25T02:37:53;7.46;62.32
80132;SHT30;69442;51.442;10.564;2023-04-25T02:40:26;7.43;62.18
80132;SHT30;69442;51.442;10.564;2023-04-25T02:42:52;7.41;62.02
80132;SHT30;69442;51.442;10.564;2023-04-25T02:45:17;7.40;62.21
80132;SHT30;69442;51.442;10.564;2023-04-25T02:47:43;7.37;62.17
80132;SHT30;69442;51.442;10.564;2023-04-25T02:50:08;7.35;62.83
80132;SHT30;69442;51.442;10.564;2023-04-25T02:52:34;7.33;62.87
80132;SHT30;69442;51.442;10.564;2023-04-25T02:54:59;7.28;62.71
80132;SHT30;69442;51.442;10.564;2023-04-25T02:57:24;7.30;63.05
80132;SHT30;69442;51.442;10.564;2023-04-25T02:59:50;7.27;63.22
80132;SHT30;69442;51.442;10.564;2023-04-25T03:02:15;7.23;63.25
80132;SHT30;69442;51.442;10.564;2023-04-25T03:04:40;7.24;63.31
80132;SHT30;69442;51.442;10.564;2023-04-25T03:07:06;7.22;63.22
80132;SHT30;69442;51.442;10.564;2023-04-25T03:09:32;7.22;63.22
80132;SHT30;69442;51.442;10.564;2023-04-25T03:11:57;7.20;63.35
80132;SHT30;69442;51.442;10.564;2023-04-25T03:14:22;7.16;63.00
80132;SHT30;69442;51.442;10.564;2023-04-25T03:16:48;7.16;63.11
80132;SHT30;69442;51.442;10.564;2023-04-25T03:19:13;7.16;63.31
80132;SHT30;69442;51.442;10.564;2023-04-25T03:21:41;7.15;63.64
80132;SHT30;69442;51.442;10.564;2023-04-25T03:24:06;7.13;63.49
80132;SHT30;69442;51.442;10.564;2023-04-25T03:26:32;7.13;63.08
80132;SHT30;69442;51.442;10.564;2023-04-25T03:28:57;7.12;63.09
80132;SHT30;69442;51.442;10.564;2023-04-25T03:31:22;7.10;62.87
80132;SHT30;69442;51.442;10.564;2023-04-25T03:33:48;7.10;62.83
80132;SHT30;69442;51.442;10.564;2023-04-25T03:36:13;7.09;62.80
80132;SHT30;69442;51.442;10.564;2023-04-25T03:38:39;7.07;62.66
80132;SHT30;69442;51.442;10.564;2023-04-25T03:41:06;7.05;62.57
80132;SHT30;69442;51.442;10.564;2023-04-25T03:43:31;7.02;62.61
80132;SHT30;69442;51.442;10.564;2023-04-25T03:45:57;6.99;62.50
80132;SHT30;69442;51.442;10.564;2023-04-25T03:48:22;6.99;62.56
80132;SHT30;69442;51.442;10.564;2023-04-25T03:50:50;6.98;62.48
80132;SHT30;69442;51.442;10.564;2023-04-25T03:53:15;6.95;62.81
80132;SHT30;69442;51.442;10.564;2023-04-25T03:55:40;6.95;62.50
80132;SHT30;69442;51.442;10.564;2023-04-25T03:58:06;6.95;62.75
80132;SHT30;69442;51.442;10.564;2023-04-25T04:00:33;6.95;63.06
80132;SHT30;69442;51.442;10.564;2023-04-25T04:02:58;6.92;62.69
80132;SHT30;69442;51.442;10.564;2023-04-25T04:05:24;6.92;62.74
80132;SHT30;69442;51.442;10.564;2023-04-25T04:07:49;6.92;62.65
80132;SHT30;69442;51.442;10.564;2023-04-25T04:10:15;6.87;62.67
80132;SHT30;69442;51.442;10.564;2023-04-25T04:12:40;6.92;62.74
80132;SHT30;69442;51.442;10.564;2023-04-25T04:15:06;6.91;63.08
80132;SHT30;69442;51.442;10.564;2023-04-25T04:17:32;6.89;62.95
80132;SHT30;69442;51.442;10.564;2023-04-25T04:19:58;6.92;62.99
80132;SHT30;69442;51.442;10.564;2023-04-25T04:22:23;6.92;62.98
80132;SHT30;69442;51.442;10.564;2023-04-25T04:24:49;6.89;63.10
80132;SHT30;69442;51.442;10.564;2023-04-25T04:27:17;6.93;63.42
80132;SHT30;69442;51.442;10.564;2023-04-25T04:29:43;6.93;63.49
80132;SHT30;69442;51.442;10.564;2023-04-25T04:32:08;6.93;63.49
80132;SHT30;69442;51.442;10.564;2023-04-25T04:34:34;6.98;63.83
80132;SHT30;69442;51.442;10.564;2023-04-25T04:37:00;6.96;63.82
80132;SHT30;69442;51.442;10.564;2023-04-25T04:39:25;6.96;63.90
80132;SHT30;69442;51.442;10.564;2023-04-25T04:41:51;6.99;64.30
80132;SHT30;69442;51.442;10.564;2023-04-25T04:44:16;7.02;64.33
80132;SHT30;69442;51.442;10.564;2023-04-25T04:46:41;7.03;64.83
80132;SHT30;69442;51.442;10.564;2023-04-25T04:49:11;7.03;64.93
80132;SHT30;69442;51.442;10.564;2023-04-25T04:51:37;7.00;65.10
80132;SHT30;69442;51.442;10.564;2023-04-25T04:54:03;7.03;65.22
80132;SHT30;69442;51.442;10.564;2023-04-25T04:56:29;7.05;65.56
80132;SHT30;69442;51.442;10.564;2023-04-25T04:58:56;7.09;65.75
80132;SHT30;69442;51.442;10.564;2023-04-25T05:01:22;7.10;65.84
80132;SHT30;69442;51.442;10.564;2023-04-25T05:03:48;7.12;65.75
80132;SHT30;69442;51.442;10.564;2023-04-25T05:06:13;7.15;65.83
80132;SHT30;69442;51.442;10.564;2023-04-25T05:08:39;7.16;66.07
80132;SHT30;69442;51.442;10.564;2023-04-25T05:11:04;7.17;66.12
80132;SHT30;69442;51.442;10.564;2023-04-25T05:13:30;7.19;66.48
80132;SHT30;69442;51.442;10.564;2023-04-25T05:15:55;7.20;66.36
80132;SHT30;69442;51.442;10.564;2023-04-25T05:18:21;7.20;66.24
80132;SHT30;69442;51.442;10.564;2023-04-25T05:20:46;7.22;66.49
80132;SHT30;69442;51.442;10.564;2023-04-25T05:23:11;7.26;66.42
80132;SHT30;69442;51.442;10.564;2023-04-25T05:25:37;7.24;66.37
80132;SHT30;69442;51.442;10.564;2023-04-25T05:28:02;7.24;66.56
80132;SHT30;69442;51.442;10.564;2023-04-25T05:30:28;7.26;66.70
80132;SHT30;69442;51.442;10.564;2023-04-25T05:32:53;7.28;66.72
80132;SHT30;69442;51.442;10.564;2023-04-25T05:35:18;7.33;66.83
80132;SHT30;69442;51.442;10.564;2023-04-25T05:37:44;7.35;66.96
80132;SHT30;69442;51.442;10.564;2023-04-25T05:40:09;7.38;67.06
80132;SHT30;69442;51.442;10.564;2023-04-25T05:42:35;7.40;67.03
80132;SHT30;69442;51.442;10.564;2023-04-25T05:45:00;7.44;67.26
80132;SHT30;69442;51.442;10.564;2023-04-25T05:47:26;7.46;67.41
80132;SHT30;69442;51.442;10.564;2023-04-25T05:49:51;7.47;67.39
80132;SHT30;69442;51.442;10.564;2023-04-25T05:52:17;7.46;67.42
80132;SHT30;69442;51.442;10.564;2023-04-25T05:54:42;7.48;67.59
80132;SHT30;69442;51.442;10.564;2023-04-25T05:57:07;7.50;67.58
80132;SHT30;69442;51.442;10.564;2023-04-25T05:59:33;7.47;67.69
80132;SHT30;69442;51.442;10.564;2023-04-25T06:01:58;7.51;67.82
80132;SHT30;69442;51.442;10.564;2023-04-25T06:04:25;7.46;67.71
80132;SHT30;69442;51.442;10.564;2023-04-25T06:06:50;7.51;67.62
80132;SHT30;69442;51.442;10.564;2023-04-25T06:09:16;7.51;67.76
80132;SHT30;69442;51.442;10.564;2023-04-25T06:11:41;7.52;67.93
80132;SHT30;69442;51.442;10.564;2023-04-25T06:14:06;7.54;68.08
80132;SHT30;69442;51.442;10.564;2023-04-25T06:16:32;7.55;68.35
80132;SHT30;69442;51.442;10.564;2023-04-25T06:18:58;7.55;68.44
80132;SHT30;69442;51.442;10.564;2023-04-25T06:21:23;7.55;68.38
80132;SHT30;69442;51.442;10.564;2023-04-25T06:23:48;7.55;68.45
80132;SHT30;69442;51.442;10.564;2023-04-25T06:26:14;7.55;68.39
80132;SHT30;69442;51.442;10.564;2023-04-25T06:28:39;7.55;68.47
80132;SHT30;69442;51.442;10.564;2023-04-25T06:31:04;7.58;68.64
80132;SHT30;69442;51.442;10.564;2023-04-25T06:33:30;7.57;68.70
80132;SHT30;69442;51.442;10.564;2023-04-25T06:35:55;7.58;68.98
80132;SHT30;69442;51.442;10.564;2023-04-25T06:38:21;7.59;69.10
80132;SHT30;69442;51.442;10.564;2023-04-25T06:40:46;7.59;68.94
80132;SHT30;69442;51.442;10.564;2023-04-25T06:43:11;7.64;69.23
80132;SHT30;69442;51.442;10.564;2023-04-25T06:45:37;7.65;69.23
80132;SHT30;69442;51.442;10.564;2023-04-25T06:48:02;7.67;69.15
80132;SHT30;69442;51.442;10.564;2023-04-25T06:50:28;7.68;69.23
80132;SHT30;69442;51.442;10.564;2023-04-25T06:52:53;7.71;69.23
80132;SHT30;69442;51.442;10.564;2023-04-25T06:55:19;7.69;69.26
80132;SHT30;69442;51.442;10.564;2023-04-25T06:57:44;7.68;69.21
80132;SHT30;69442;51.442;10.564;2023-04-25T07:00:10;7.67;69.39
80132;SHT30;69442;51.442;10.564;2023-04-25T07:02:36;7.67;69.52
80132;SHT30;69442;51.442;10.564;2023-04-25T07:05:02;7.62;69.62
80132;SHT30;69442;51.442;10.564;2023-04-25T07:07:29;7.65;69.71
80132;SHT30;69442;51.442;10.564;2023-04-25T07:09:55;7.64;69.72
80132;SHT30;69442;51.442;10.564;2023-04-25T07:12:20;7.61;69.67
80132;SHT30;69442;51.442;10.564;2023-04-25T07:14:46;7.65;69.51
80132;SHT30;69442;51.442;10.564;2023-04-25T07:17:11;7.67;69.49
80132;SHT30;69442;51.442;10.564;2023-04-25T07:19:37;7.72;69.39
80132;SHT30;69442;51.442;10.564;2023-04-25T07:22:04;7.76;69.31
80132;SHT30;69442;51.442;10.564;2023-04-25T07:24:32;7.79;69.21
80132;SHT30;69442;51.442;10.564;2023-04-25T07:26:58;7.83;69.12
80132;SHT30;69442;51.442;10.564;2023-04-25T07:29:23;7.83;68.93
80132;SHT30;69442;51.442;10.564;2023-04-25T07:31:49;7.86;69.04
80132;SHT30;69442;51.442;10.564;2023-04-25T07:34:14;7.89;68.89
80132;SHT30;69442;51.442;10.564;2023-04-25T07:36:40;7.90;68.85
80132;SHT30;69442;51.442;10.564;2023-04-25T07:39:06;7.95;68.47
80132;SHT30;69442;51.442;10.564;2023-04-25T07:41:32;7.92;68.45
80132;SHT30;69442;51.442;10.564;2023-04-25T07:43:57;7.95;68.39
80132;SHT30;69442;51.442;10.564;2023-04-25T07:46:23;7.97;68.47
80132;SHT30;69442;51.442;10.564;2023-04-25T07:48:49;7.96;68.40
80132;SHT30;69442;51.442;10.564;2023-04-25T07:51:14;7.95;68.43
80132;SHT30;69442;51.442;10.564;2023-04-25T07:53:39;7.93;68.48
80132;SHT30;69442;51.442;10.564;2023-04-25T07:56:06;7.93;68.33
80132;SHT30;69442;51.442;10.564;2023-04-25T07:58:31;7.92;68.30
80132;SHT30;69442;51.442;10.564;2023-04-25T08:00:57;7.96;67.96
80132;SHT30;69442;51.442;10.564;2023-04-25T08:03:22;7.96;67.57
80132;SHT30;69442;51.442;10.564;2023-04-25T08:05:47;7.99;67.53
80132;SHT30;69442;51.442;10.564;2023-04-25T08:08:13;8.00;67.47
80132;SHT30;69442;51.442;10.564;2023-04-25T08:10:38;8.04;67.14
80132;SHT30;69442;51.442;10.564;2023-04-25T08:13:04;8.04;66.74
80132;SHT30;69442;51.442;10.564;2023-04-25T08:15:29;8.09;67.01
80132;SHT30;69442;51.442;10.564;2023-04-25T08:17:54;8.07;66.99
80132;SHT30;69442;51.442;10.564;2023-04-25T08:20:20;8.09;66.43
80132;SHT30;69442;51.442;10.564;2023-04-25T08:22:45;8.10;66.25
80132;SHT30;69442;51.442;10.564;2023-04-25T08:25:11;8.16;65.98
80132;SHT30;69442;51.442;10.564;2023-04-25T08:27:36;8.20;65.87
80132;SHT30;69442;51.442;10.564;2023-04-25T08:30:02;8.24;65.63
80132;SHT30;69442;51.442;10.564;2023-04-25T08:32:28;8.24;65.43
80132;SHT30;69442;51.442;10.564;2023-04-25T08:34:54;8.31;65.20
80132;SHT30;69442;51.442;10.564;2023-04-25T08:37:20;8.31;64.67
80132;SHT30;69442;51.442;10.564;2023-04-25T08:39:46;8.36;64.74
80132;SHT30;69442;51.442;10.564;2023-04-25T08:42:15;8.41;64.43
80132;SHT30;69442;51.442;10.564;2023-04-25T08:44:40;8.47;64.41
80132;SHT30;69442;51.442;10.564;2023-04-25T08:47:06;8.47;64.14
80132;SHT30;69442;51.442;10.564;2023-04-25T08:49:32;8.52;64.27
80132;SHT30;69442;51.442;10.564;2023-04-25T08:52:03;8.59;64.24
80132;SHT30;69442;51.442;10.564;2023-04-25T08:54:31;8.64;64.10
80132;SHT30;69442;51.442;10.564;2023-04-25T08:56:57;8.69;63.89
80132;SHT30;69442;51.442;10.564;2023-04-25T08:59:27;8.76;64.08
80132;SHT30;69442;51.442;10.564;2023-04-25T09:01:53;8.83;63.88
80132;SHT30;69442;51.442;10.564;2023-04-25T09:04:18;8.90;63.69
80132;SHT30;69442;51.442;10.564;2023-04-25T09:06:46;8.93;63.52
80132;SHT30;69442;51.442;10.564;2023-04-25T09:09:11;9.02;63.48
80132;SHT30;69442;51.442;10.564;2023-04-25T09:11:37;9.06;63.16
80132;SHT30;69442;51.442;10.564;2023-04-25T09:14:22;9.11;62.51
80132;SHT30;69442;51.442;10.564;2023-04-25T09:19:23;9.21;62.24
80132;SHT30;69442;51.442;10.564;2023-04-25T09:21:50;9.24;62.49
80132;SHT30;69442;51.442;10.564;2023-04-25T09:24:16;9.32;62.45
80132;SHT30;69442;51.442;10.564;2023-04-25T09:26:41;9.37;62.35
80132;SHT30;69442;51.442;10.564;2023-04-25T09:29:07;9.45;62.31
80132;SHT30;69442;51.442;10.564;2023-04-25T09:31:33;9.55;62.09
80132;SHT30;69442;51.442;10.564;2023-04-25T09:34:00;9.59;61.69
80132;SHT30;69442;51.442;10.564;2023-04-25T09:36:30;9.65;61.58
80132;SHT30;69442;51.442;10.564;2023-04-25T09:38:55;9.71;61.47
80132;SHT30;69442;51.442;10.564;2023-04-25T09:41:25;9.78;61.51
80132;SHT30;69442;51.442;10.564;2023-04-25T09:43:50;9.87;61.53
80132;SHT30;69442;51.442;10.564;2023-04-25T09:46:16;9.99;61.35
80132;SHT30;69442;51.442;10.564;2023-04-25T09:48:52;10.04;60.61
80132;SHT30;69442;51.442;10.564;2023-04-25T09:51:18;10.13;60.80
80132;SHT30;69442;51.442;10.564;2023-04-25T09:53:45;10.17;60.71
80132;SHT30;69442;51.442;10.564;2023-04-25T09:56:12;10.28;60.72
80132;SHT30;69442;51.442;10.564;2023-04-25T09:58:39;10.38;60.80
80132;SHT30;69442;51.442;10.564;2023-04-25T10:01:16;10.49;60.38
80132;SHT30;69442;51.442;10.564;2023-04-25T10:03:42;10.58;60.09
80132;SHT30;69442;51.442;10.564;2023-04-25T10:06:12;10.63;59.92
80132;SHT30;69442;51.442;10.564;2023-04-25T10:08:39;10.66;59.72
80132;SHT30;69442;51.442;10.564;2023-04-25T10:11:06;10.68;59.16
80132;SHT30;69442;51.442;10.564;2023-04-25T10:13:33;10.66;59.14
80132;SHT30;69442;51.442;10.564;2023-04-25T10:16:01;10.66;58.48
80132;SHT30;69442;51.442;10.564;2023-04-25T10:18:28;10.62;57.91
80132;SHT30;69442;51.442;10.564;2023-04-25T10:20:55;10.52;58.26
80132;SHT30;69442;51.442;10.564;2023-04-25T10:23:21;10.41;58.09
80132;SHT30;69442;51.442;10.564;2023-04-25T10:25:47;10.38;57.57
80132;SHT30;69442;51.442;10.564;2023-04-25T10:28:12;10.28;58.67
80132;SHT30;69442;51.442;10.564;2023-04-25T10:30:56;10.24;57.91
80132;SHT30;69442;51.442;10.564;2023-04-25T10:33:32;10.20;57.74
80132;SHT30;69442;51.442;10.564;2023-04-25T10:35:58;10.13;58.68
80132;SHT30;69442;51.442;10.564;2023-04-25T10:38:23;10.13;58.42
80132;SHT30;69442;51.442;10.564;2023-04-25T10:41:04;10.13;58.16
80132;SHT30;69442;51.442;10.564;2023-04-25T10:48:52;10.13;58.15
80132;SHT30;69442;51.442;10.564;2023-04-25T10:51:18;10.20;58.11
80132;SHT30;69442;51.442;10.564;2023-04-25T10:53:45;10.22;58.16
80132;SHT30;69442;51.442;10.564;2023-04-25T10:56:44;10.31;58.38
80132;SHT30;69442;51.442;10.564;2023-04-25T10:59:11;10.42;58.19
80132;SHT30;69442;51.442;10.564;2023-04-25T11:01:41;10.49;58.05
80132;SHT30;69442;51.442;10.564;2023-04-25T11:04:28;10.56;56.82
80132;SHT30;69442;51.442;10.564;2023-04-25T11:09:36;10.66;56.03
80132;SHT30;69442;51.442;10.564;2023-04-25T11:12:03;10.72;56.50
80132;SHT30;69442;51.442;10.564;2023-04-25T11:14:28;10.73;56.80
80132;SHT30;69442;51.442;10.564;2023-04-25T11:16:55;10.79;56.96
80132;SHT30;69442;51.442;10.564;2023-04-25T11:19:21;10.80;55.99
80132;SHT30;69442;51.442;10.564;2023-04-25T11:21:47;10.80;56.04
80132;SHT30;69442;51.442;10.564;2023-04-25T11:24:12;10.83;55.65
80132;SHT30;69442;51.442;10.564;2023-04-25T11:26:37;10.86;55.18
80132;SHT30;69442;51.442;10.564;2023-04-25T11:29:03;10.90;55.10
80132;SHT30;69442;51.442;10.564;2023-04-25T11:31:29;10.89;54.85
80132;SHT30;69442;51.442;10.564;2023-04-25T11:33:56;10.93;55.84
80132;SHT30;69442;51.442;10.564;2023-04-25T11:36:23;11.01;55.03
80132;SHT30;69442;51.442;10.564;2023-04-25T11:38:53;11.04;54.61
80132;SHT30;69442;51.442;10.564;2023-04-25T11:41:19;11.08;54.90
80132;SHT30;69442;51.442;10.564;2023-04-25T11:43:47;11.08;54.99
80132;SHT30;69442;51.442;10.564;2023-04-25T11:46:13;11.10;55.08
80132;SHT30;69442;51.442;10.564;2023-04-25T11:48:42;11.13;54.04
80132;SHT30;69442;51.442;10.564;2023-04-25T11:51:08;11.07;54.16
80132;SHT30;69442;51.442;10.564;2023-04-25T11:53:34;11.04;53.86
80132;SHT30;69442;51.442;10.564;2023-04-25T11:56:00;11.04;54.76
80132;SHT30;69442;51.442;10.564;2023-04-25T11:58:26;11.04;54.87
80132;SHT30;69442;51.442;10.564;2023-04-25T12:00:53;11.00;55.24
80132;SHT30;69442;51.442;10.564;2023-04-25T12:03:20;10.99;55.28
80132;SHT30;69442;51.442;10.564;2023-04-25T12:05:51;10.95;55.01
80132;SHT30;69442;51.442;10.564;2023-04-25T12:08:16;10.92;54.72
80132;SHT30;69442;51.442;10.564;2023-04-25T12:10:45;10.86;55.08
80132;SHT30;69442;51.442;10.564;2023-04-25T12:13:25;10.83;54.15
80132;SHT30;69442;51.442;10.564;2023-04-25T12:15:51;10.84;54.74
80132;SHT30;69442;51.442;10.564;2023-04-25T12:18:23;10.86;55.07
80132;SHT30;69442;51.442;10.564;2023-04-25T12:20:49;10.90;55.53
80132;SHT30;69442;51.442;10.564;2023-04-25T12:23:14;10.95;55.52
80132;SHT30;69442;51.442;10.564;2023-04-25T12:25:41;11.01;55.50
80132;SHT30;69442;51.442;10.564;2023-04-25T12:33:22;11.13;54.48
80132;SHT30;69442;51.442;10.564;2023-04-25T12:35:47;11.08;54.29
80132;SHT30;69442;51.442;10.564;2023-04-25T12:38:23;11.10;54.45
80132;SHT30;69442;51.442;10.564;2023-04-25T12:40:49;11.04;54.50
80132;SHT30;69442;51.442;10.564;2023-04-25T12:43:15;10.99;54.67
80132;SHT30;69442;51.442;10.564;2023-04-25T12:45:42;10.96;54.64
80132;SHT30;69442;51.442;10.564;2023-04-25T12:48:07;10.93;54.71
80132;SHT30;69442;51.442;10.564;2023-04-25T12:50:32;10.95;55.02
80132;SHT30;69442;51.442;10.564;2023-04-25T12:52:58;10.97;54.78
80132;SHT30;69442;51.442;10.564;2023-04-25T12:55:23;11.01;55.26
80132;SHT30;69442;51.442;10.564;2023-04-25T12:57:48;11.04;55.08
80132;SHT30;69442;51.442;10.564;2023-04-25T13:00:14;11.07;55.31
80132;SHT30;69442;51.442;10.564;2023-04-25T13:02:43;11.07;55.20
80132;SHT30;69442;51.442;10.564;2023-04-25T13:05:08;11.08;55.04
80132;SHT30;69442;51.442;10.564;2023-04-25T13:07:34;11.07;54.73
80132;SHT30;69442;51.442;10.564;2023-04-25T13:10:00;11.04;54.82
80132;SHT30;69442;51.442;10.564;2023-04-25T13:12:27;11.01;54.74
80132;SHT30;69442;51.442;10.564;2023-04-25T13:14:53;11.01;54.69
80132;SHT30;69442;51.442;10.564;2023-04-25T13:17:18;11.01;54.89
80132;SHT30;69442;51.442;10.564;2023-04-25T13:19:43;10.99;55.17
80132;SHT30;69442;51.442;10.564;2023-04-25T13:22:09;11.01;55.03
80132;SHT30;69442;51.442;10.564;2023-04-25T13:24:34;11.00;54.90
80132;SHT30;69442;51.442;10.564;2023-04-25T13:27:00;11.00;54.78
80132;SHT30;69442;51.442;10.564;2023-04-25T13:29:26;10.97;54.70
80132;SHT30;69442;51.442;10.564;2023-04-25T13:31:51;10.96;54.70
80132;SHT30;69442;51.442;10.564;2023-04-25T13:34:17;10.97;54.82
80132;SHT30;69442;51.442;10.564;2023-04-25T13:36:42;10.97;54.72
80132;SHT30;69442;51.442;10.564;2023-04-25T13:39:08;11.00;54.56
80132;SHT30;69442;51.442;10.564;2023-04-25T13:41:33;11.01;54.67
80132;SHT30;69442;51.442;10.564;2023-04-25T13:43:59;11.11;54.96
80132;SHT30;69442;51.442;10.564;2023-04-25T13:46:26;11.21;54.33
80132;SHT30;69442;51.442;10.564;2023-04-25T13:48:52;11.30;54.59
80132;SHT30;69442;51.442;10.564;2023-04-25T13:51:17;11.43;54.27
80132;SHT30;69442;51.442;10.564;2023-04-25T13:53:43;11.54;53.93
80132;SHT30;69442;51.442;10.564;2023-04-25T13:56:10;11.63;53.88
80132;SHT30;69442;51.442;10.564;2023-04-25T13:58:36;11.73;54.06
80132;SHT30;69442;51.442;10.564;2023-04-25T14:01:03;11.84;54.02
80132;SHT30;69442;51.442;10.564;2023-04-25T14:03:30;11.90;53.66
80132;SHT30;69442;51.442;10.564;2023-04-25T14:05:55;11.91;52.86
80132;SHT30;69442;51.442;10.564;2023-04-25T14:08:21;11.94;52.65
80132;SHT30;69442;51.442;10.564;2023-04-25T14:10:46;11.95;52.70
80132;SHT30;69442;51.442;10.564;2023-04-25T14:13:12;11.95;52.46
80132;SHT30;69442;51.442;10.564;2023-04-25T14:15:38;11.97;53.19
80132;SHT30;69442;51.442;10.564;2023-04-25T14:18:04;11.97;53.08
80132;SHT30;69442;51.442;10.564;2023-04-25T14:20:29;12.00;52.97
80132;SHT30;69442;51.442;10.564;2023-04-25T14:22:55;11.95;51.87
80132;SHT30;69442;51.442;10.564;2023-04-25T14:25:22;11.89;52.64
80132;SHT30;69442;51.442;10.564;2023-04-25T14:27:48;11.87;52.85
80132;SHT30;69442;51.442;10.564;2023-04-25T14:30:16;11.83;52.73
80132;SHT30;69442;51.442;10.564;2023-04-25T14:32:42;11.79;52.56
80132;SHT30;69442;51.442;10.564;2023-04-25T14:35:08;11.70;52.67
80132;SHT30;69442;51.442;10.564;2023-04-25T14:37:34;11.67;52.41
80132;SHT30;69442;51.442;10.564;2023-04-25T14:39:59;11.66;52.38
80132;SHT30;69442;51.442;10.564;2023-04-25T14:42:25;11.59;52.68
80132;SHT30;69442;51.442;10.564;2023-04-25T14:44:50;11.58;52.72
80132;SHT30;69442;51.442;10.564;2023-04-25T14:47:16;11.58;52.95
80132;SHT30;69442;51.442;10.564;2023-04-25T14:49:42;11.55;53.00
80132;SHT30;69442;51.442;10.564;2023-04-25T14:52:07;11.55;53.01
80132;SHT30;69442;51.442;10.564;2023-04-25T14:54:33;11.57;53.16
80132;SHT30;69442;51.442;10.564;2023-04-25T14:56:58;11.63;53.61
80132;SHT30;69442;51.442;10.564;2023-04-25T14:59:24;11.72;53.57
80132;SHT30;69442;51.442;10.564;2023-04-25T15:01:50;11.83;53.39
80132;SHT30;69442;51.442;10.564;2023-04-25T15:04:16;11.95;53.60
80132;SHT30;69442;51.442;10.564;2023-04-25T15:06:42;12.10;53.53
80132;SHT30;69442;51.442;10.564;2023-04-25T15:09:08;12.21;53.69
80132;SHT30;69442;51.442;10.564;2023-04-25T15:11:36;12.37;53.70
80132;SHT30;69442;51.442;10.564;2023-04-25T15:14:01;12.48;53.55
80132;SHT30;69442;51.442;10.564;2023-04-25T15:16:28;12.62;53.19
80132;SHT30;69442;51.442;10.564;2023-04-25T15:18:54;12.76;53.28
80132;SHT30;69442;51.442;10.564;2023-04-25T15:21:19;12.87;53.22
80132;SHT30;69442;51.442;10.564;2023-04-25T15:23:44;12.94;53.04
80132;SHT30;69442;51.442;10.564;2023-04-25T15:26:10;13.00;53.06
80132;SHT30;69442;51.442;10.564;2023-04-25T15:28:36;12.99;52.98
80132;SHT30;69442;51.442;10.564;2023-04-25T15:31:01;12.96;52.50
80132;SHT30;69442;51.442;10.564;2023-04-25T15:33:27;12.94;52.84
80132;SHT30;69442;51.442;10.564;2023-04-25T15:35:52;12.89;52.21